createdAt,value
2018-11-23T00:00:33.812Z,1011.18
2018-11-23T00:01:33.790Z,1011.15
2018-11-23T00:02:33.762Z,1011.17
2018-11-23T00:03:33.739Z,1011.18
2018-11-23T00:04:33.721Z,1011.21
2018-11-23T00:05:33.694Z,1011.2
2018-11-23T00:06:33.669Z,1011.18
2018-11-23T00:07:33.651Z,1011.18
2018-11-23T00:08:33.624Z,1011.23
2018-11-23T00:09:33.605Z,1011.25
2018-11-23T00:10:33.575Z,1011.2
2018-11-23T00:11:33.555Z,1011.19
2018-11-23T00:12:33.533Z,1011.21
2018-11-23T00:13:33.507Z,1011.23
2018-11-23T00:14:33.486Z,1011.22
2018-11-23T00:15:33.460Z,1011.25
2018-11-23T00:16:33.439Z,1011.25
2018-11-23T00:17:33.415Z,1011.26
2018-11-23T00:18:33.391Z,1011.28
2018-11-23T00:19:33.371Z,1011.28
2018-11-23T00:20:33.348Z,1011.24
2018-11-23T00:21:33.324Z,1011.27
2018-11-23T00:22:33.307Z,1011.26
2018-11-23T00:23:33.280Z,1011.25
2018-11-23T00:24:33.253Z,1011.32
2018-11-23T00:25:33.230Z,1011.28
2018-11-23T00:26:33.208Z,1011.32
2018-11-23T00:27:33.183Z,1011.31
2018-11-23T00:28:33.161Z,1011.31
2018-11-23T00:29:33.140Z,1011.34
2018-11-23T00:30:33.115Z,1011.36
2018-11-23T00:31:33.095Z,1011.33
2018-11-23T00:32:33.070Z,1011.35
2018-11-23T00:33:33.047Z,1011.4
2018-11-23T00:34:33.025Z,1011.36
2018-11-23T00:35:33.002Z,1011.4
2018-11-23T00:36:32.977Z,1011.4
2018-11-23T00:37:32.955Z,1011.34
2018-11-23T00:38:32.932Z,1011.39
2018-11-23T00:39:32.910Z,1011.36
2018-11-23T00:40:32.888Z,1011.35
2018-11-23T00:41:32.866Z,1011.37
2018-11-23T00:42:32.839Z,1011.39
2018-11-23T00:43:32.816Z,1011.37
2018-11-23T00:44:32.794Z,1011.41
2018-11-23T00:45:32.775Z,1011.39
2018-11-23T00:46:32.747Z,1011.37
2018-11-23T00:47:32.748Z,1011.37
2018-11-23T00:48:32.704Z,1011.36
2018-11-23T00:49:32.683Z,1011.36
2018-11-23T00:50:32.659Z,1011.36
2018-11-23T00:51:32.632Z,1011.35
2018-11-23T00:52:32.611Z,1011.36
2018-11-23T00:53:32.585Z,1011.36
2018-11-23T00:54:32.561Z,1011.35
2018-11-23T00:55:32.542Z,1011.37
2018-11-23T00:56:32.516Z,1011.32
2018-11-23T00:57:32.494Z,1011.34
2018-11-23T00:58:32.469Z,1011.36
2018-11-23T00:59:32.451Z,1011.36
2018-11-23T01:00:32.423Z,1011.36
2018-11-23T01:01:32.401Z,1011.37
2018-11-23T01:02:32.379Z,1011.35
2018-11-23T01:03:32.355Z,1011.33
2018-11-23T01:04:32.334Z,1011.36
2018-11-23T01:05:32.308Z,1011.35
2018-11-23T01:06:32.286Z,1011.35
2018-11-23T01:07:32.266Z,1011.34
2018-11-23T01:08:32.443Z,1011.35
2018-11-23T01:09:32.216Z,1011.33
2018-11-23T01:10:32.192Z,1011.35
2018-11-23T01:11:32.176Z,1011.36
2018-11-23T01:12:32.148Z,1011.32
2018-11-23T01:13:32.125Z,1011.36
2018-11-23T01:14:32.113Z,1011.36
2018-11-23T01:15:32.078Z,1011.35
2018-11-23T01:16:32.055Z,1011.41
2018-11-23T01:17:32.033Z,1011.38
2018-11-23T01:18:32.015Z,1011.35
2018-11-23T01:19:31.985Z,1011.32
2018-11-23T01:20:31.964Z,1011.32
2018-11-23T01:21:31.940Z,1011.28
2018-11-23T01:22:31.916Z,1011.37
2018-11-23T01:23:31.893Z,1011.34
2018-11-23T01:24:31.873Z,1011.36
2018-11-23T01:25:31.851Z,1011.36
2018-11-23T01:26:31.823Z,1011.34
2018-11-23T01:27:31.801Z,1011.35
2018-11-23T01:28:31.785Z,1011.37
2018-11-23T01:29:31.757Z,1011.34
2018-11-23T01:30:31.773Z,1011.31
2018-11-23T01:31:31.709Z,1011.3
2018-11-23T01:32:31.693Z,1011.32
2018-11-23T01:33:31.661Z,1011.34
2018-11-23T01:34:31.641Z,1011.31
2018-11-23T01:35:31.618Z,1011.29
2018-11-23T01:36:31.593Z,1011.3
2018-11-23T01:37:31.569Z,1011.31
2018-11-23T01:38:31.547Z,1011.28
2018-11-23T01:39:31.524Z,1011.31
2018-11-23T01:40:31.500Z,1011.25
2018-11-23T01:41:31.476Z,1011.29
2018-11-23T01:42:31.453Z,1011.25
2018-11-23T01:43:31.431Z,1011.24
2018-11-23T01:44:31.407Z,1011.29
2018-11-23T01:45:31.384Z,1011.27
2018-11-23T01:46:31.360Z,1011.27
2018-11-23T01:47:31.338Z,1011.26
2018-11-23T01:48:31.314Z,1011.2
2018-11-23T01:49:31.295Z,1011.2
2018-11-23T01:50:31.271Z,1011.21
2018-11-23T01:51:31.246Z,1011.2
2018-11-23T01:52:31.274Z,1011.18
2018-11-23T01:53:31.197Z,1011.18
2018-11-23T01:54:31.179Z,1011.15
2018-11-23T01:55:31.151Z,1011.22
2018-11-23T01:56:31.128Z,1011.2
2018-11-23T01:57:31.106Z,1011.17
2018-11-23T01:58:31.083Z,1011.17
2018-11-23T01:59:31.058Z,1011.2
2018-11-23T02:00:31.034Z,1011.17
2018-11-23T02:01:31.014Z,1011.2
2018-11-23T02:02:30.989Z,1011.2
2018-11-23T02:03:30.971Z,1011.19
2018-11-23T02:04:30.942Z,1011.16
2018-11-23T02:05:30.920Z,1011.17
2018-11-23T02:06:30.897Z,1011.14
2018-11-23T02:07:30.872Z,1011.12
2018-11-23T02:08:30.849Z,1011.14
2018-11-23T02:09:30.827Z,1011.15
2018-11-23T02:10:30.808Z,1011.15
2018-11-23T02:11:30.781Z,1011.15
2018-11-23T02:12:30.761Z,1011.16
2018-11-23T02:13:30.734Z,1011.13
2018-11-23T02:14:30.711Z,1011.12
2018-11-23T02:15:30.686Z,1011.11
2018-11-23T02:16:30.663Z,1011.11
2018-11-23T02:17:30.640Z,1011.16
2018-11-23T02:18:30.616Z,1011.16
2018-11-23T02:19:30.600Z,1011.16
2018-11-23T02:20:30.572Z,1011.18
2018-11-23T02:21:30.546Z,1011.2
2018-11-23T02:22:30.523Z,1011.2
2018-11-23T02:23:30.504Z,1011.22
2018-11-23T02:24:30.478Z,1011.18
2018-11-23T02:25:30.453Z,1011.22
2018-11-23T02:26:30.431Z,1011.18
2018-11-23T02:27:30.407Z,1011.19
2018-11-23T02:28:30.383Z,1011.16
2018-11-23T02:29:30.361Z,1011.14
2018-11-23T02:30:30.339Z,1011.15
2018-11-23T02:31:30.314Z,1011.18
2018-11-23T02:32:30.289Z,1011.16
2018-11-23T02:33:30.266Z,1011.14
2018-11-23T02:34:30.259Z,1011.14
2018-11-23T02:35:30.221Z,1011.18
2018-11-23T02:36:30.197Z,1011.08
2018-11-23T02:37:30.178Z,1011.08
2018-11-23T02:38:30.157Z,1011.07
2018-11-23T02:39:30.126Z,1011.09
2018-11-23T02:40:30.103Z,1011.06
2018-11-23T02:41:30.081Z,1011.08
2018-11-23T02:42:30.058Z,1011.01
2018-11-23T02:43:30.032Z,1011.06
2018-11-23T02:44:30.010Z,1011.05
2018-11-23T02:45:29.986Z,1011.06
2018-11-23T02:46:29.965Z,1011.03
2018-11-23T02:47:29.943Z,1011.06
2018-11-23T02:48:29.917Z,1011.03
2018-11-23T02:49:29.894Z,1011.02
2018-11-23T02:50:29.900Z,1011.03
2018-11-23T02:51:29.847Z,1011.02
2018-11-23T02:52:29.825Z,1010.99
2018-11-23T02:53:29.802Z,1011.01
2018-11-23T02:54:29.777Z,1010.98
2018-11-23T02:55:29.753Z,1010.97
2018-11-23T02:56:29.731Z,1011.02
2018-11-23T02:57:29.707Z,1010.98
2018-11-23T02:58:29.682Z,1011.02
2018-11-23T02:59:29.659Z,1010.98
2018-11-23T03:00:29.642Z,1011
2018-11-23T03:01:29.612Z,1011.03
2018-11-23T03:02:29.591Z,1011.07
2018-11-23T03:03:29.568Z,1011.08
2018-11-23T03:04:29.544Z,1011.08
2018-11-23T03:05:29.518Z,1011.12
2018-11-23T03:06:29.501Z,1011.09
2018-11-23T03:07:29.473Z,1011.11
2018-11-23T03:08:29.656Z,1011.11
2018-11-23T03:09:29.426Z,1011.08
2018-11-23T03:10:29.405Z,1011.1
2018-11-23T03:11:29.383Z,1011.09
2018-11-23T03:12:29.357Z,1011.1
2018-11-23T03:13:29.333Z,1011.08
2018-11-23T03:14:29.310Z,1011.13
2018-11-23T03:15:29.290Z,1011.13
2018-11-23T03:16:29.263Z,1011.1
2018-11-23T03:17:29.243Z,1011.1
2018-11-23T03:18:29.217Z,1011.09
2018-11-23T03:19:29.196Z,1011.07
2018-11-23T03:20:29.170Z,1011.11
2018-11-23T03:21:29.146Z,1011.12
2018-11-23T03:22:29.123Z,1011.12
2018-11-23T03:23:29.102Z,1011.12
2018-11-23T03:24:29.076Z,1011.11
2018-11-23T03:25:29.051Z,1011.07
2018-11-23T03:26:29.030Z,1011.12
2018-11-23T03:27:29.005Z,1011.11
2018-11-23T03:28:28.984Z,1011.1
2018-11-23T03:29:28.964Z,1011.11
2018-11-23T03:30:28.937Z,1011.1
2018-11-23T03:31:28.911Z,1011.11
2018-11-23T03:32:28.890Z,1011.06
2018-11-23T03:33:28.867Z,1011.03
2018-11-23T03:34:28.842Z,1011.04
2018-11-23T03:35:28.822Z,1011.03
2018-11-23T03:36:28.796Z,1011.01
2018-11-23T03:37:28.773Z,1011
2018-11-23T03:38:28.756Z,1010.97
2018-11-23T03:39:33.982Z,1010.97
2018-11-23T03:40:28.701Z,1010.96
2018-11-23T03:41:28.678Z,1010.93
2018-11-23T03:42:28.654Z,1010.96
2018-11-23T03:43:28.631Z,1010.94
2018-11-23T03:44:28.608Z,1010.94
2018-11-23T03:45:28.588Z,1010.93
2018-11-23T03:46:28.560Z,1010.96
2018-11-23T03:47:28.535Z,1010.92
2018-11-23T03:48:28.515Z,1010.92
2018-11-23T03:49:28.491Z,1010.9
2018-11-23T03:50:28.469Z,1010.93
2018-11-23T03:51:28.449Z,1010.91
2018-11-23T03:52:28.423Z,1010.89
2018-11-23T03:53:28.395Z,1010.82
2018-11-23T03:54:28.373Z,1010.87
2018-11-23T03:55:28.350Z,1010.83
2018-11-23T03:56:28.326Z,1010.83
2018-11-23T03:57:28.304Z,1010.84
2018-11-23T03:58:28.279Z,1010.85
2018-11-23T03:59:28.259Z,1010.82
2018-11-23T04:00:28.234Z,1010.8
2018-11-23T04:01:28.209Z,1010.87
2018-11-23T04:02:28.184Z,1010.86
2018-11-23T04:03:28.162Z,1010.85
2018-11-23T04:04:28.137Z,1010.85
2018-11-23T04:05:28.116Z,1010.86
2018-11-23T04:06:28.099Z,1010.87
2018-11-23T04:07:28.072Z,1010.89
2018-11-23T04:08:28.046Z,1010.87
2018-11-23T04:09:28.022Z,1010.87
2018-11-23T04:10:27.996Z,1010.86
2018-11-23T04:11:27.975Z,1010.86
2018-11-23T04:12:27.950Z,1010.88
2018-11-23T04:13:27.926Z,1010.89
2018-11-23T04:14:27.904Z,1010.85
2018-11-23T04:15:27.880Z,1010.84
2018-11-23T04:16:27.855Z,1010.88
2018-11-23T04:17:27.833Z,1010.87
2018-11-23T04:18:27.812Z,1010.84
2018-11-23T04:19:27.785Z,1010.91
2018-11-23T04:20:27.765Z,1010.88
2018-11-23T04:21:27.741Z,1010.91
2018-11-23T04:22:27.716Z,1010.9
2018-11-23T04:23:27.692Z,1010.9
2018-11-23T04:24:27.670Z,1010.89
2018-11-23T04:25:27.645Z,1010.92
2018-11-23T04:26:27.620Z,1010.87
2018-11-23T04:27:27.602Z,1010.89
2018-11-23T04:28:27.575Z,1010.87
2018-11-23T04:29:27.559Z,1010.89
2018-11-23T04:30:27.528Z,1010.89
2018-11-23T04:31:27.508Z,1010.84
2018-11-23T04:32:27.484Z,1010.85
2018-11-23T04:33:27.456Z,1010.87
2018-11-23T04:34:27.432Z,1010.81
2018-11-23T04:35:27.415Z,1010.81
2018-11-23T04:36:27.385Z,1010.78
2018-11-23T04:37:27.362Z,1010.75
2018-11-23T04:38:27.338Z,1010.72
2018-11-23T04:39:27.317Z,1010.75
2018-11-23T04:40:27.293Z,1010.71
2018-11-23T04:41:27.276Z,1010.65
2018-11-23T04:42:27.244Z,1010.73
2018-11-23T04:43:27.222Z,1010.72
2018-11-23T04:44:27.210Z,1010.68
2018-11-23T04:45:27.174Z,1010.69
2018-11-23T04:46:27.149Z,1010.69
2018-11-23T04:47:27.131Z,1010.68
2018-11-23T04:48:27.104Z,1010.67
2018-11-23T04:49:27.079Z,1010.68
2018-11-23T04:50:27.057Z,1010.66
2018-11-23T04:51:27.039Z,1010.69
2018-11-23T04:52:27.015Z,1010.66
2018-11-23T04:53:26.992Z,1010.74
2018-11-23T04:54:26.964Z,1010.72
2018-11-23T04:55:26.938Z,1010.7
2018-11-23T04:56:26.916Z,1010.68
2018-11-23T04:57:26.896Z,1010.71
2018-11-23T04:58:26.868Z,1010.71
2018-11-23T04:59:26.846Z,1010.72
2018-11-23T05:00:26.823Z,1010.67
2018-11-23T05:01:26.804Z,1010.74
2018-11-23T05:02:26.775Z,1010.64
2018-11-23T05:03:26.751Z,1010.67
2018-11-23T05:04:26.729Z,1010.7
2018-11-23T05:05:26.702Z,1010.68
2018-11-23T05:06:26.679Z,1010.71
2018-11-23T05:07:26.659Z,1010.7
2018-11-23T05:09:26.611Z,1010.72
2018-11-23T05:10:26.589Z,1010.72
2018-11-23T05:11:26.562Z,1010.69
2018-11-23T05:12:26.541Z,1010.68
2018-11-23T05:13:26.539Z,1010.7
2018-11-23T05:14:26.494Z,1010.7
2018-11-23T05:15:26.469Z,1010.68
2018-11-23T05:16:26.447Z,1010.68
2018-11-23T05:17:26.424Z,1010.69
2018-11-23T05:18:26.399Z,1010.65
2018-11-23T05:19:26.375Z,1010.65
2018-11-23T05:20:26.352Z,1010.62
2018-11-23T05:21:26.329Z,1010.67
2018-11-23T05:22:26.307Z,1010.69
2018-11-23T05:23:26.297Z,1010.7
2018-11-23T05:24:26.259Z,1010.71
2018-11-23T05:25:26.233Z,1010.68
2018-11-23T05:26:26.210Z,1010.71
2018-11-23T05:27:26.186Z,1010.76
2018-11-23T05:28:26.162Z,1010.76
2018-11-23T05:29:26.141Z,1010.72
2018-11-23T05:30:26.118Z,1010.72
2018-11-23T05:31:26.097Z,1010.74
2018-11-23T05:32:26.069Z,1010.77
2018-11-23T05:33:26.046Z,1010.79
2018-11-23T05:34:26.022Z,1010.76
2018-11-23T05:35:25.998Z,1010.76
2018-11-23T05:36:25.975Z,1010.74
2018-11-23T05:37:25.956Z,1010.76
2018-11-23T05:38:25.928Z,1010.74
2018-11-23T05:39:25.904Z,1010.69
2018-11-23T05:40:25.887Z,1010.71
2018-11-23T05:41:25.860Z,1010.7
2018-11-23T05:42:25.833Z,1010.65
2018-11-23T05:43:25.813Z,1010.67
2018-11-23T05:44:25.787Z,1010.63
2018-11-23T05:45:25.765Z,1010.61
2018-11-23T05:46:25.739Z,1010.64
2018-11-23T05:47:25.715Z,1010.6
2018-11-23T05:48:26.853Z,1010.62
2018-11-23T05:49:25.668Z,1010.6
2018-11-23T05:50:25.644Z,1010.63
2018-11-23T05:51:25.622Z,1010.63
2018-11-23T05:52:25.596Z,1010.61
2018-11-23T05:53:25.573Z,1010.6
2018-11-23T05:54:25.552Z,1010.63
2018-11-23T05:55:25.525Z,1010.58
2018-11-23T05:56:25.503Z,1010.63
2018-11-23T05:57:25.480Z,1010.64
2018-11-23T05:58:25.460Z,1010.59
2018-11-23T05:59:25.433Z,1010.61
2018-11-23T06:00:25.411Z,1010.58
2018-11-23T06:01:25.387Z,1010.57
2018-11-23T06:02:25.366Z,1010.56
2018-11-23T06:03:25.338Z,1010.54
2018-11-23T06:04:25.316Z,1010.54
2018-11-23T06:05:25.290Z,1010.54
2018-11-23T06:06:25.927Z,1010.5
2018-11-23T06:07:25.243Z,1010.48
2018-11-23T06:08:25.220Z,1010.51
2018-11-23T06:09:25.205Z,1010.46
2018-11-23T06:10:25.177Z,1010.47
2018-11-23T06:11:25.149Z,1010.46
2018-11-23T06:12:25.126Z,1010.42
2018-11-23T06:13:25.105Z,1010.45
2018-11-23T06:14:25.083Z,1010.42
2018-11-23T06:15:25.058Z,1010.42
2018-11-23T06:16:25.031Z,1010.39
2018-11-23T06:17:25.012Z,1010.42
2018-11-23T06:18:24.985Z,1010.37
2018-11-23T06:19:24.962Z,1010.42
2018-11-23T06:20:24.939Z,1010.42
2018-11-23T06:21:24.916Z,1010.42
2018-11-23T06:22:24.891Z,1010.41
2018-11-23T06:23:24.867Z,1010.43
2018-11-23T06:24:25.152Z,1010.42
2018-11-23T06:25:24.823Z,1010.41
2018-11-23T06:26:24.799Z,1010.41
2018-11-23T06:27:24.779Z,1010.4
2018-11-23T06:28:24.751Z,1010.42
2018-11-23T06:29:24.729Z,1010.42
2018-11-23T06:30:24.707Z,1010.43
2018-11-23T06:31:24.679Z,1010.4
2018-11-23T06:32:24.657Z,1010.4
2018-11-23T06:33:24.634Z,1010.43
2018-11-23T06:34:24.611Z,1010.41
2018-11-23T06:35:24.591Z,1010.39
2018-11-23T06:36:24.563Z,1010.41
2018-11-23T06:37:24.540Z,1010.42
2018-11-23T06:38:24.515Z,1010.38
2018-11-23T06:39:24.494Z,1010.45
2018-11-23T06:40:24.468Z,1010.44
2018-11-23T06:41:24.451Z,1010.48
2018-11-23T06:42:24.424Z,1010.52
2018-11-23T06:43:24.398Z,1010.53
2018-11-23T06:44:24.372Z,1010.53
2018-11-23T06:45:24.351Z,1010.51
2018-11-23T06:46:24.329Z,1010.5
2018-11-23T06:47:24.304Z,1010.47
2018-11-23T06:48:24.286Z,1010.51
2018-11-23T06:49:24.256Z,1010.47
2018-11-23T06:50:24.234Z,1010.48
2018-11-23T06:51:24.209Z,1010.49
2018-11-23T06:52:24.185Z,1010.5
2018-11-23T06:53:24.162Z,1010.52
2018-11-23T06:54:24.141Z,1010.53
2018-11-23T06:55:24.115Z,1010.52
2018-11-23T06:56:24.092Z,1010.54
2018-11-23T06:57:24.068Z,1010.57
2018-11-23T06:58:24.047Z,1010.57
2018-11-23T06:59:24.024Z,1010.57
2018-11-23T07:00:23.997Z,1010.58
2018-11-23T07:01:23.975Z,1010.57
2018-11-23T07:02:23.952Z,1010.5
2018-11-23T07:03:23.927Z,1010.53
2018-11-23T07:04:23.907Z,1010.49
2018-11-23T07:05:23.881Z,1010.56
2018-11-23T07:06:23.856Z,1010.52
2018-11-23T07:07:23.833Z,1010.48
2018-11-23T07:08:23.809Z,1010.5
2018-11-23T07:09:23.794Z,1010.48
2018-11-23T07:10:23.770Z,1010.47
2018-11-23T07:11:23.742Z,1010.49
2018-11-23T07:12:23.719Z,1010.43
2018-11-23T07:13:23.696Z,1010.46
2018-11-23T07:14:23.674Z,1010.45
2018-11-23T07:15:23.645Z,1010.45
2018-11-23T07:16:23.622Z,1010.46
2018-11-23T07:17:23.602Z,1010.48
2018-11-23T07:18:23.578Z,1010.46
2018-11-23T07:19:23.554Z,1010.51
2018-11-23T07:20:23.528Z,1010.52
2018-11-23T07:21:23.503Z,1010.52
2018-11-23T07:22:23.481Z,1010.51
2018-11-23T07:23:23.460Z,1010.51
2018-11-23T07:24:23.434Z,1010.51
2018-11-23T07:25:23.432Z,1010.56
2018-11-23T07:26:23.386Z,1010.54
2018-11-23T07:27:23.364Z,1010.53
2018-11-23T07:28:23.362Z,1010.53
2018-11-23T07:29:23.319Z,1010.56
2018-11-23T07:30:23.302Z,1010.53
2018-11-23T07:31:23.273Z,1010.55
2018-11-23T07:32:23.246Z,1010.55
2018-11-23T07:33:23.227Z,1010.56
2018-11-23T07:34:23.209Z,1010.55
2018-11-23T07:35:23.178Z,1010.59
2018-11-23T07:36:23.160Z,1010.61
2018-11-23T07:37:23.130Z,1010.55
2018-11-23T07:38:23.109Z,1010.54
2018-11-23T07:39:23.083Z,1010.57
2018-11-23T07:40:23.060Z,1010.56
2018-11-23T07:41:23.037Z,1010.6
2018-11-23T07:42:23.015Z,1010.62
2018-11-23T07:43:22.991Z,1010.63
2018-11-23T07:44:22.966Z,1010.64
2018-11-23T07:45:22.947Z,1010.65
2018-11-23T07:46:22.919Z,1010.66
2018-11-23T07:47:22.895Z,1010.68
2018-11-23T07:48:22.874Z,1010.6
2018-11-23T07:49:22.853Z,1010.62
2018-11-23T07:50:22.825Z,1010.6
2018-11-23T07:51:22.802Z,1010.59
2018-11-23T07:52:22.783Z,1010.59
2018-11-23T07:53:22.760Z,1010.6
2018-11-23T07:54:22.733Z,1010.6
2018-11-23T07:55:22.712Z,1010.58
2018-11-23T07:56:22.688Z,1010.61
2018-11-23T07:57:22.665Z,1010.54
2018-11-23T07:58:22.639Z,1010.52
2018-11-23T07:59:22.618Z,1010.53
2018-11-23T08:00:22.596Z,1010.54
2018-11-23T08:01:22.572Z,1010.53
2018-11-23T08:02:22.548Z,1010.54
2018-11-23T08:03:22.524Z,1010.58
2018-11-23T08:04:22.504Z,1010.55
2018-11-23T08:05:22.481Z,1010.53
2018-11-23T08:06:22.454Z,1010.55
2018-11-23T08:07:22.433Z,1010.57
2018-11-23T08:08:22.409Z,1010.63
2018-11-23T08:09:22.388Z,1010.65
2018-11-23T08:10:22.365Z,1010.65
2018-11-23T08:11:22.340Z,1010.69
2018-11-23T08:12:22.316Z,1010.74
2018-11-23T08:13:22.296Z,1010.73
2018-11-23T08:14:22.271Z,1010.73
2018-11-23T08:15:22.246Z,1010.74
2018-11-23T08:16:22.225Z,1010.73
2018-11-23T08:17:22.201Z,1010.74
2018-11-23T08:18:22.186Z,1010.75
2018-11-23T08:19:22.159Z,1010.73
2018-11-23T08:20:22.132Z,1010.76
2018-11-23T08:21:22.110Z,1010.8
2018-11-23T08:22:22.090Z,1010.75
2018-11-23T08:23:22.064Z,1010.78
2018-11-23T08:24:22.040Z,1010.82
2018-11-23T08:25:22.020Z,1010.87
2018-11-23T08:26:21.994Z,1010.86
2018-11-23T08:27:21.974Z,1010.81
2018-11-23T08:28:21.951Z,1010.84
2018-11-23T08:29:21.927Z,1010.9
2018-11-23T08:30:21.903Z,1010.87
2018-11-23T08:31:21.881Z,1010.86
2018-11-23T08:32:21.858Z,1010.86
2018-11-23T08:33:21.836Z,1010.8
2018-11-23T08:34:21.812Z,1010.77
2018-11-23T08:35:21.788Z,1010.74
2018-11-23T08:36:21.769Z,1010.77
2018-11-23T08:37:21.745Z,1010.76
2018-11-23T08:38:21.719Z,1010.76
2018-11-23T08:39:21.703Z,1010.72
2018-11-23T08:40:21.681Z,1010.72
2018-11-23T08:41:21.655Z,1010.67
2018-11-23T08:42:21.630Z,1010.65
2018-11-23T08:43:21.613Z,1010.65
2018-11-23T08:44:21.586Z,1010.6
2018-11-23T08:45:21.583Z,1010.58
2018-11-23T08:46:21.542Z,1010.55
2018-11-23T08:47:21.518Z,1010.54
2018-11-23T08:48:21.494Z,1010.57
2018-11-23T08:49:21.472Z,1010.58
2018-11-23T08:50:21.450Z,1010.61
2018-11-23T08:51:21.436Z,1010.63
2018-11-23T08:52:21.405Z,1010.6
2018-11-23T08:53:23.925Z,1010.63
2018-11-23T08:54:21.361Z,1010.61
2018-11-23T08:55:21.338Z,1010.61
2018-11-23T08:56:21.314Z,1010.63
2018-11-23T08:57:21.298Z,1010.58
2018-11-23T08:58:21.274Z,1010.53
2018-11-23T08:59:21.255Z,1010.55
2018-11-23T09:00:21.226Z,1010.53
2018-11-23T09:01:21.203Z,1010.52
2018-11-23T09:02:21.184Z,1010.48
2018-11-23T09:03:21.160Z,1010.51
2018-11-23T09:04:21.138Z,1010.48
2018-11-23T09:05:21.115Z,1010.48
2018-11-23T09:06:21.094Z,1010.46
2018-11-23T09:07:21.071Z,1010.47
2018-11-23T09:08:21.049Z,1010.49
2018-11-23T09:09:21.229Z,1010.53
2018-11-23T09:10:21.004Z,1010.49
2018-11-23T09:11:20.984Z,1010.51
2018-11-23T09:12:20.963Z,1010.55
2018-11-23T09:13:20.939Z,1010.52
2018-11-23T09:14:20.916Z,1010.6
2018-11-23T09:15:20.893Z,1010.57
2018-11-23T09:16:20.874Z,1010.56
2018-11-23T09:17:20.849Z,1010.56
2018-11-23T09:18:20.829Z,1010.59
2018-11-23T09:19:20.808Z,1010.63
2018-11-23T09:20:20.785Z,1010.52
2018-11-23T09:21:20.763Z,1010.54
2018-11-23T09:22:23.391Z,1010.58
2018-11-23T09:23:20.723Z,1010.54
2018-11-23T09:24:20.697Z,1010.55
2018-11-23T09:25:20.676Z,1010.55
2018-11-23T09:26:20.654Z,1010.54
2018-11-23T09:27:20.634Z,1010.52
2018-11-23T09:28:20.613Z,1010.52
2018-11-23T09:29:21.583Z,1010.49
2018-11-23T09:30:20.569Z,1010.48
2018-11-23T09:31:20.549Z,1010.42
2018-11-23T09:32:20.529Z,1010.49
2018-11-23T09:33:20.508Z,1010.4
2018-11-23T09:34:20.491Z,1010.46
2018-11-23T09:35:20.472Z,1010.41
2018-11-23T09:36:20.449Z,1010.46
2018-11-23T09:37:20.424Z,1010.52
2018-11-23T09:38:20.403Z,1010.51
2018-11-23T09:39:20.383Z,1010.56
2018-11-23T09:40:20.362Z,1010.54
2018-11-23T09:41:20.342Z,1010.57
2018-11-23T09:42:20.322Z,1010.61
2018-11-23T09:43:20.302Z,1010.68
2018-11-23T09:44:20.281Z,1010.61
2018-11-23T09:45:20.282Z,1010.69
2018-11-23T09:46:20.242Z,1010.7
2018-11-23T09:47:20.221Z,1010.71
2018-11-23T09:48:20.202Z,1010.67
2018-11-23T09:49:20.181Z,1010.66
2018-11-23T09:50:20.164Z,1010.68
2018-11-23T09:51:20.142Z,1010.66
2018-11-23T09:52:20.127Z,1010.65
2018-11-23T09:53:20.111Z,1010.69
2018-11-23T09:54:20.086Z,1010.68
2018-11-23T09:55:20.066Z,1010.66
2018-11-23T09:56:20.050Z,1010.71
2018-11-23T09:57:20.029Z,1010.67
2018-11-23T09:58:20.011Z,1010.68
2018-11-23T09:59:19.993Z,1010.74
2018-11-23T10:00:19.978Z,1010.72
2018-11-23T10:01:19.966Z,1010.77
2018-11-23T10:02:19.938Z,1010.75
2018-11-23T10:03:19.921Z,1010.78
2018-11-23T10:04:19.961Z,1010.76
2018-11-23T10:05:19.883Z,1010.74
2018-11-23T10:06:19.866Z,1010.76
2018-11-23T10:07:19.851Z,1010.72
2018-11-23T10:08:19.833Z,1010.7
2018-11-23T10:09:19.815Z,1010.71
2018-11-23T10:10:19.800Z,1010.67
2018-11-23T10:11:19.789Z,1010.64
2018-11-23T10:12:19.765Z,1010.64
2018-11-23T10:13:19.749Z,1010.65
2018-11-23T10:14:19.731Z,1010.58
2018-11-23T10:15:19.717Z,1010.53
2018-11-23T10:16:19.699Z,1010.53
2018-11-23T10:17:19.685Z,1010.55
2018-11-23T10:18:19.670Z,1010.54
2018-11-23T10:19:19.650Z,1010.51
2018-11-23T10:20:19.634Z,1010.52
2018-11-23T10:21:19.666Z,1010.49
2018-11-23T10:22:19.602Z,1010.54
2018-11-23T10:23:19.589Z,1010.54
2018-11-23T10:24:19.570Z,1010.49
2018-11-23T10:25:19.555Z,1010.55
2018-11-23T10:26:19.542Z,1010.52
2018-11-23T10:27:19.523Z,1010.53
2018-11-23T10:28:19.507Z,1010.53
2018-11-23T10:29:19.492Z,1010.48
2018-11-23T10:30:19.484Z,1010.48
2018-11-23T10:31:19.460Z,1010.48
2018-11-23T10:32:19.443Z,1010.46
2018-11-23T10:33:19.427Z,1010.47
2018-11-23T10:34:19.411Z,1010.48
2018-11-23T10:35:19.396Z,1010.46
2018-11-23T10:36:19.381Z,1010.41
2018-11-23T10:37:19.365Z,1010.42
2018-11-23T10:38:19.349Z,1010.38
2018-11-23T10:39:19.336Z,1010.32
2018-11-23T10:40:19.319Z,1010.3
2018-11-23T10:41:19.314Z,1010.28
2018-11-23T10:42:19.292Z,1010.29
2018-11-23T10:43:19.272Z,1010.3
2018-11-23T10:44:19.257Z,1010.28
2018-11-23T10:45:19.242Z,1010.25
2018-11-23T10:46:19.231Z,1010.31
2018-11-23T10:47:19.212Z,1010.27
2018-11-23T10:48:19.199Z,1010.27
2018-11-23T10:49:19.185Z,1010.25
2018-11-23T10:50:19.169Z,1010.21
2018-11-23T10:51:19.153Z,1010.23
2018-11-23T10:52:19.148Z,1010.24
2018-11-23T10:53:19.127Z,1010.2
2018-11-23T10:54:19.114Z,1010.19
2018-11-23T10:55:19.098Z,1010.16
2018-11-23T10:56:19.085Z,1010.14
2018-11-23T10:57:19.072Z,1010.13
2018-11-23T10:58:19.057Z,1010.14
2018-11-23T10:59:19.044Z,1010.13
2018-11-23T11:00:19.033Z,1010.09
2018-11-23T11:01:19.017Z,1010.07
2018-11-23T11:02:19.007Z,1010.07
2018-11-23T11:03:18.992Z,1010.1
2018-11-23T11:04:18.978Z,1010.07
2018-11-23T11:05:18.966Z,1010.06
2018-11-23T11:06:18.962Z,1010.07
2018-11-23T11:07:18.942Z,1010.08
2018-11-23T11:08:18.928Z,1010.08
2018-11-23T11:09:19.119Z,1010.11
2018-11-23T11:10:18.903Z,1010.08
2018-11-23T11:11:18.889Z,1010.07
2018-11-23T11:12:18.881Z,1010.09
2018-11-23T11:13:18.865Z,1010.09
2018-11-23T11:14:18.853Z,1010.06
2018-11-23T11:15:18.841Z,1010.06
2018-11-23T11:16:18.829Z,1010.02
2018-11-23T11:17:18.815Z,1010.05
2018-11-23T11:18:18.801Z,1009.97
2018-11-23T11:19:18.797Z,1009.98
2018-11-23T11:20:18.779Z,1009.97
2018-11-23T11:21:18.769Z,1009.98
2018-11-23T11:22:18.755Z,1009.98
2018-11-23T11:23:18.741Z,1009.96
2018-11-23T11:24:18.729Z,1009.93
2018-11-23T11:25:18.719Z,1009.9
2018-11-23T11:26:18.705Z,1009.94
2018-11-23T11:27:18.694Z,1009.92
2018-11-23T11:28:18.682Z,1009.9
2018-11-23T11:29:18.672Z,1009.88
2018-11-23T11:30:18.661Z,1009.9
2018-11-23T11:31:18.650Z,1009.86
2018-11-23T11:32:18.640Z,1009.85
2018-11-23T11:33:18.630Z,1009.87
2018-11-23T11:34:18.617Z,1009.9
2018-11-23T11:35:18.611Z,1009.91
2018-11-23T11:36:18.599Z,1009.92
2018-11-23T11:37:18.584Z,1009.92
2018-11-23T11:38:18.573Z,1009.92
2018-11-23T11:39:18.564Z,1009.9
2018-11-23T11:40:18.553Z,1009.87
2018-11-23T11:41:18.543Z,1009.86
2018-11-23T11:42:18.535Z,1009.82
2018-11-23T11:43:18.522Z,1009.83
2018-11-23T11:44:18.512Z,1009.78
2018-11-23T11:45:18.503Z,1009.75
2018-11-23T11:46:18.494Z,1009.78
2018-11-23T11:47:18.482Z,1009.69
2018-11-23T11:48:18.476Z,1009.7
2018-11-23T11:49:18.468Z,1009.67
2018-11-23T11:50:18.460Z,1009.72
2018-11-23T11:51:18.448Z,1009.66
2018-11-23T11:52:18.441Z,1009.67
2018-11-23T11:53:18.433Z,1009.69
2018-11-23T11:54:18.429Z,1009.61
2018-11-23T11:55:18.415Z,1009.64
2018-11-23T11:56:18.412Z,1009.63
2018-11-23T11:57:18.400Z,1009.67
2018-11-23T11:58:18.393Z,1009.69
2018-11-23T11:59:18.382Z,1009.67
2018-11-23T12:00:18.379Z,1009.67
2018-11-23T12:01:18.371Z,1009.66
2018-11-23T12:02:18.361Z,1009.65
2018-11-23T12:03:18.352Z,1009.65
2018-11-23T12:04:18.348Z,1009.64
2018-11-23T12:05:18.339Z,1009.65
2018-11-23T12:06:18.331Z,1009.63
2018-11-23T12:07:18.323Z,1009.59
2018-11-23T12:08:18.316Z,1009.6
2018-11-23T12:09:18.310Z,1009.57